Terminal Aerodrome Forecast
Issued by NWS

Home | Current Version | Previous Version | Graphics & Text | Print | Product List | Glossary On
Versions: 1 2 3 4 5 6 7 8 9 10 11 12 13
000
FTUS43 KICT 171100
TAFSLN
TAF
KSLN 171132Z 1712/1812 02013KT P6SM OVC100
     FM171900 VRB05KT P6SM BKN150
     FM172300 15008KT P6SM SCT100=

USA.gov is the U.S. government's official web portal to all federal, state and local government web resources and services.